createdAt,value
2018-11-26T18:46:34.882Z,46.04
2018-11-26T18:47:34.839Z,45.95
2018-11-26T18:48:35.028Z,45.95
2018-11-26T18:49:34.936Z,45.95
2018-11-26T18:50:34.643Z,46.04
2018-11-26T18:51:34.584Z,46.83
2018-11-26T18:52:34.539Z,45.95
2018-11-26T18:53:34.485Z,46.25
2018-11-26T18:54:34.450Z,46.04
2018-11-26T18:55:34.401Z,46.35
2018-11-26T18:56:34.336Z,46.23
2018-11-26T18:57:34.266Z,46.45
2018-11-26T18:58:34.231Z,46.12
2018-11-26T18:59:34.203Z,45.92
2018-11-26T19:00:34.101Z,46.53
2018-11-26T19:01:34.034Z,45.92
2018-11-26T19:02:34.011Z,45.42
2018-11-26T19:03:33.911Z,45.72
2018-11-26T19:04:33.867Z,46.03
2018-11-26T19:05:33.787Z,45.62
2018-11-26T19:06:33.727Z,45.62
2018-11-26T19:07:33.687Z,45.32
2018-11-26T19:08:33.621Z,45.22
2018-11-26T19:09:33.531Z,45.53
2018-11-26T19:10:33.443Z,45.42
2018-11-26T19:11:33.385Z,45.53
2018-11-26T19:12:33.308Z,45.22
2018-11-26T19:13:33.245Z,45.25
2018-11-26T19:14:33.274Z,45.75
2018-11-26T19:15:33.179Z,45.54
2018-11-26T19:16:33.035Z,45.32
2018-11-26T19:17:33.090Z,45.75
2018-11-26T19:18:32.906Z,45.53
2018-11-26T19:19:32.850Z,45.62
2018-11-26T19:20:32.796Z,45.72
2018-11-26T19:21:33.266Z,45.53
2018-11-26T19:22:32.652Z,45.34
2018-11-26T19:23:32.599Z,45.53
2018-11-26T19:24:32.602Z,45.54
2018-11-26T19:25:32.460Z,45.25
2018-11-26T19:26:32.387Z,44.95
2018-11-26T19:27:32.333Z,45.22
2018-11-26T19:28:32.247Z,45.02
2018-11-26T19:29:32.176Z,44.24
2018-11-26T19:30:32.106Z,45.02
2018-11-26T19:31:32.029Z,44.12
2018-11-26T19:32:32.012Z,44.84
2018-11-26T19:33:31.902Z,44.12
2018-11-26T19:34:31.866Z,44.32
2018-11-26T19:35:31.795Z,44.82
2018-11-26T19:36:31.701Z,44.42
2018-11-26T19:37:31.607Z,44.52
2018-11-26T19:38:31.527Z,44.52
2018-11-26T19:39:31.496Z,44.72
2018-11-26T19:40:31.374Z,44.62
2018-11-26T19:41:31.322Z,44.82
2018-11-26T19:42:31.250Z,44.82
2018-11-26T19:43:31.209Z,44.52
2018-11-26T19:44:31.094Z,44.52
2018-11-26T19:45:31.042Z,44.52
2018-11-26T19:46:31.086Z,44.82
2018-11-26T19:47:30.949Z,44.42
2018-11-26T19:48:30.833Z,44.62
2018-11-26T19:49:30.803Z,44.62
2018-11-26T19:50:30.651Z,44.60
2018-11-26T19:51:30.598Z,44.32
2018-11-26T19:52:30.513Z,44.32
2018-11-26T19:53:30.417Z,44.32
2018-11-26T19:54:30.368Z,44.82
2018-11-26T19:55:30.355Z,44.60
2018-11-26T19:56:30.285Z,44.42
2018-11-26T19:57:30.198Z,44.82
2018-11-26T19:58:30.057Z,44.62
2018-11-26T19:59:29.986Z,45.00
2018-11-26T20:00:29.908Z,44.90
2018-11-26T20:01:29.910Z,44.82
2018-11-26T20:02:29.823Z,44.50
2018-11-26T20:03:29.708Z,44.42
2018-11-26T20:04:29.622Z,44.92
2018-11-26T20:05:29.520Z,44.32
2018-11-26T20:06:29.555Z,44.32
2018-11-26T20:07:29.436Z,44.60
2018-11-26T20:08:29.331Z,44.42
2018-11-26T20:09:29.244Z,44.42
2018-11-26T20:10:29.200Z,44.30
2018-11-26T20:11:33.142Z,44.40
2018-11-26T20:12:29.089Z,44.42
2018-11-26T20:13:28.950Z,44.02
2018-11-26T20:14:28.846Z,44.52
2018-11-26T20:15:28.777Z,44.22
2018-11-26T20:16:28.733Z,44.72
2018-11-26T20:17:28.715Z,44.62
2018-11-26T20:18:28.719Z,44.72
2018-11-26T20:19:28.594Z,44.70
2018-11-26T20:20:28.482Z,44.32
2018-11-26T20:21:28.385Z,44.32
2018-11-26T20:22:28.379Z,44.80
2018-11-26T20:23:28.152Z,44.52
2018-11-26T20:24:28.111Z,44.32
2018-11-26T20:25:28.098Z,44.52
2018-11-26T20:26:27.922Z,44.30
2018-11-26T20:27:27.895Z,44.60
2018-11-26T20:28:27.944Z,44.82
2018-11-26T20:29:27.834Z,44.90
2018-11-26T20:30:27.684Z,44.92
2018-11-26T20:31:27.672Z,44.80
2018-11-26T20:32:30.242Z,44.70
2018-11-26T20:33:27.515Z,44.70
2018-11-26T20:34:27.422Z,44.92
2018-11-26T20:35:27.295Z,45.02
2018-11-26T20:36:27.241Z,44.80
2018-11-26T20:37:27.189Z,45.00
2018-11-26T20:38:27.182Z,45.00
2018-11-26T20:39:27.129Z,44.70
2018-11-26T20:40:26.949Z,44.72
2018-11-26T20:41:26.896Z,44.80
2018-11-26T20:42:26.857Z,44.00
2018-11-26T20:43:26.917Z,43.70
2018-11-26T20:44:26.830Z,44.30
2018-11-26T20:45:26.660Z,43.70
2018-11-26T20:46:26.617Z,44.02
2018-11-26T20:47:27.579Z,43.82
2018-11-26T20:48:30.502Z,44.42
2018-11-26T20:49:26.458Z,44.42
2018-11-26T20:50:26.309Z,44.42
2018-11-26T20:51:26.253Z,44.32
2018-11-26T20:52:26.249Z,44.22
2018-11-26T20:53:26.121Z,44.32
2018-11-26T20:54:26.126Z,44.12
2018-11-26T20:55:25.936Z,44.40
2018-11-26T20:56:25.878Z,44.22
2018-11-26T20:57:25.788Z,44.32
2018-11-26T20:58:25.727Z,44.12
2018-11-26T20:59:25.691Z,44.32
2018-11-26T21:00:26.607Z,44.32
2018-11-26T21:01:25.557Z,44.32
2018-11-26T21:02:25.451Z,44.32
2018-11-26T21:03:25.302Z,44.32
2018-11-26T21:04:25.230Z,43.92
2018-11-26T21:05:26.022Z,44.42
2018-11-26T21:06:25.174Z,44.42
2018-11-26T21:07:24.979Z,44.32
2018-11-26T21:08:24.926Z,44.02
2018-11-26T21:09:24.855Z,43.32
2018-11-26T21:10:24.849Z,42.52
2018-11-26T21:11:24.704Z,42.41
2018-11-26T21:12:24.632Z,42.52
2018-11-26T21:13:24.558Z,42.91
2018-11-26T21:14:24.588Z,43.32
2018-11-26T21:15:24.449Z,43.52
2018-11-26T21:16:24.348Z,43.52
2018-11-26T21:17:24.261Z,43.32
2018-11-26T21:18:24.187Z,43.32
2018-11-26T21:19:24.132Z,43.52
2018-11-26T21:20:24.991Z,42.91
2018-11-26T21:21:23.978Z,43.22
2018-11-26T21:22:23.965Z,43.32
2018-11-26T21:23:23.886Z,43.62
2018-11-26T21:24:23.788Z,43.22
2018-11-26T21:25:23.682Z,43.52
2018-11-26T21:26:23.702Z,43.62
2018-11-26T21:27:23.520Z,43.42
2018-11-26T21:28:23.445Z,43.52
2018-11-26T21:29:23.360Z,43.32
2018-11-26T21:30:23.275Z,43.92
2018-11-26T21:31:23.252Z,43.72
2018-11-26T21:32:23.119Z,42.82
2018-11-26T21:33:23.040Z,43.82
2018-11-26T21:34:22.966Z,43.22
2018-11-26T21:35:22.888Z,43.12
2018-11-26T21:36:22.829Z,43.32
2018-11-26T21:37:22.723Z,42.32
2018-11-26T21:38:22.644Z,43.02
2018-11-26T21:39:22.580Z,43.22
2018-11-26T21:40:22.466Z,43.32
2018-11-26T21:41:22.406Z,43.12
2018-11-26T21:42:22.297Z,43.32
2018-11-26T21:43:22.237Z,42.32
2018-11-26T21:44:22.127Z,42.21
2018-11-26T21:45:22.034Z,42.52
2018-11-26T21:46:21.986Z,42.21
2018-11-26T21:47:21.907Z,42.24
2018-11-26T21:48:21.802Z,42.21
2018-11-26T21:49:21.715Z,42.21
2018-11-26T21:50:21.646Z,42.21
2018-11-26T21:51:21.563Z,42.11
2018-11-26T21:52:21.523Z,42.02
2018-11-26T21:53:21.414Z,42.13
2018-11-26T21:54:21.331Z,42.24
2018-11-26T21:55:21.252Z,42.24
2018-11-26T21:56:21.205Z,42.24
2018-11-26T21:57:21.117Z,42.24
2018-11-26T21:58:21.054Z,42.33
2018-11-26T21:59:21.015Z,42.24
2018-11-26T22:00:20.884Z,42.24
2018-11-26T22:01:20.816Z,42.33
2018-11-26T22:02:20.735Z,42.74
2018-11-26T22:03:20.642Z,42.83
2018-11-26T22:04:20.600Z,42.44
2018-11-26T22:05:20.487Z,42.44
2018-11-26T22:06:20.428Z,42.44
2018-11-26T22:07:20.338Z,42.54
2018-11-26T22:08:20.256Z,43.24
2018-11-26T22:09:20.179Z,42.24
2018-11-26T22:10:20.089Z,42.24
2018-11-26T22:11:20.019Z,42.33
2018-11-26T22:12:19.949Z,42.33
2018-11-26T22:13:19.865Z,42.94
2018-11-26T22:14:19.839Z,43.14
2018-11-26T22:15:19.712Z,43.16
2018-11-26T22:16:19.650Z,43.16
2018-11-26T22:17:19.587Z,43.04
2018-11-26T22:18:19.493Z,42.96
2018-11-26T22:19:19.408Z,42.96
2018-11-26T22:20:19.313Z,43.26
2018-11-26T22:21:19.241Z,43.36
2018-11-26T22:22:19.172Z,43.36
2018-11-26T22:23:19.077Z,43.16
2018-11-26T22:24:19.126Z,44.06
2018-11-26T22:25:18.968Z,43.46
2018-11-26T22:26:18.885Z,43.16
2018-11-26T22:27:18.860Z,43.86
2018-11-26T22:28:18.723Z,43.56
2018-11-26T22:29:18.612Z,43.76
2018-11-26T22:30:18.540Z,43.78
2018-11-26T22:31:18.453Z,43.98
2018-11-26T22:32:18.404Z,43.98
2018-11-26T22:33:18.306Z,43.68
2018-11-26T22:34:18.237Z,43.68
2018-11-26T22:35:18.187Z,43.58
2018-11-26T22:36:18.052Z,43.38
2018-11-26T22:37:17.976Z,43.68
2018-11-26T22:38:17.913Z,43.78
2018-11-26T22:39:17.839Z,44.08
2018-11-26T22:40:17.748Z,43.88
2018-11-26T22:41:17.672Z,43.38
2018-11-26T22:42:17.594Z,43.80
2018-11-26T22:43:17.530Z,44.00
2018-11-26T22:44:17.441Z,44.40
2018-11-26T22:45:17.371Z,44.51
2018-11-26T22:46:17.288Z,44.40
2018-11-26T22:47:17.218Z,44.31
2018-11-26T22:48:17.159Z,44.40
2018-11-26T22:49:17.065Z,44.40
2018-11-26T22:50:16.998Z,44.31
2018-11-26T22:51:16.924Z,44.31
2018-11-26T22:52:16.852Z,44.10
2018-11-26T22:53:16.798Z,44.10
2018-11-26T22:54:16.712Z,44.31
2018-11-26T22:55:16.665Z,44.00
2018-11-26T22:56:16.588Z,44.00
2018-11-26T22:57:16.510Z,44.10
2018-11-26T22:58:16.529Z,44.02
2018-11-26T22:59:16.356Z,43.92
2018-11-26T23:00:16.289Z,44.12
2018-11-26T23:01:16.220Z,43.82
2018-11-26T23:02:16.148Z,44.12
2018-11-26T23:03:16.124Z,43.82
2018-11-26T23:04:16.009Z,44.43
2018-11-26T23:05:15.943Z,44.43
2018-11-26T23:06:15.874Z,44.43
2018-11-26T23:07:15.800Z,44.73
2018-11-26T23:08:15.744Z,44.43
2018-11-26T23:09:15.683Z,44.73
2018-11-26T23:10:15.597Z,44.83
2018-11-26T23:11:15.540Z,44.93
2018-11-26T23:12:15.469Z,44.93
2018-11-26T23:13:15.412Z,44.63
2018-11-26T23:14:15.361Z,44.73
2018-11-26T23:15:15.299Z,45.15
2018-11-26T23:16:15.205Z,44.43
2018-11-26T23:17:15.141Z,45.35
2018-11-26T23:18:15.069Z,45.03
2018-11-26T23:19:15.012Z,45.15
2018-11-26T23:20:14.919Z,45.65
2018-11-26T23:21:14.857Z,45.86
2018-11-26T23:22:14.792Z,45.95
2018-11-26T23:23:14.728Z,45.65
2018-11-26T23:24:14.694Z,45.73
2018-11-26T23:25:14.599Z,45.75
2018-11-26T23:26:14.546Z,45.95
2018-11-26T23:27:14.487Z,45.45
2018-11-26T23:28:14.421Z,46.06
2018-11-26T23:29:14.379Z,45.95
2018-11-26T23:30:14.290Z,45.43
2018-11-26T23:31:14.231Z,45.33
2018-11-26T23:32:14.171Z,45.15
2018-11-26T23:33:14.228Z,45.33
2018-11-26T23:34:14.151Z,45.35
2018-11-26T23:35:14.071Z,45.25
2018-11-26T23:36:13.944Z,45.23
2018-11-26T23:37:14.680Z,44.32
2018-11-26T23:38:13.813Z,44.32
2018-11-26T23:39:13.723Z,44.63
2018-11-26T23:40:13.658Z,44.63
2018-11-26T23:41:13.571Z,44.73
2018-11-26T23:42:13.522Z,44.93
2018-11-26T23:43:13.492Z,44.93
2018-11-26T23:44:13.377Z,44.53
2018-11-26T23:45:13.332Z,44.43
2018-11-26T23:46:13.253Z,44.43
2018-11-26T23:47:13.181Z,44.73
2018-11-26T23:48:13.116Z,44.73
2018-11-26T23:49:13.063Z,45.03
2018-11-26T23:50:13.017Z,45.13
2018-11-26T23:51:12.926Z,44.63
2018-11-26T23:52:12.868Z,45.10
2018-11-26T23:53:12.796Z,44.60
2018-11-26T23:54:12.732Z,44.43
2018-11-26T23:55:12.694Z,44.93
2018-11-26T23:56:12.618Z,44.63
2018-11-26T23:57:12.544Z,44.32
2018-11-26T23:58:12.498Z,43.80
2018-11-26T23:59:12.424Z,44.20
